Time;durP1;ratioP1;P1;durP2;ratioP2;P2;SDS_P1;SDS_P2;PMS_P1;PMS_P2;Temp;Humidity;BMP_temperature;BMP_pressure;BME280_temperature;BME280_humidity;BME280_pressure;Samples;Min_cycle;Max_cycle;Signal;HPM_P1;HPM_P2
2022/06/04 00:01:42;;;;;;;1.27;0.90;;;16.60;64.00;;;;;;5031015;28;20136;-63
2022/06/04 00:04:12;;;;;;;4.30;0.90;;;16.50;64.10;;;;;;5039413;28;20025;-63
2022/06/04 00:06:37;;;;;;;;;;;16.50;64.20;;;;;;5034176;28;20468;-63
2022/06/04 00:09:05;;;;;;;2.03;1.02;;;16.40;64.20;;;;;;5030839;28;20003;-63
2022/06/04 00:16:59;;;;;;;1.48;0.90;;;16.20;64.60;;;;;;5035304;28;20163;-63
2022/06/04 00:19:25;;;;;;;1.52;0.80;;;16.20;64.90;;;;;;5034611;28;20104;-63
2022/06/04 00:21:51;;;;;;;1.00;0.70;;;16.20;64.90;;;;;;5039930;28;20028;-63
2022/06/04 00:24:17;;;;;;;1.00;0.68;;;16.10;64.90;;;;;;5033277;28;20033;-63
2022/06/04 00:26:43;;;;;;;2.22;0.90;;;16.10;65.00;;;;;;5034285;28;20037;-63
2022/06/04 00:29:09;;;;;;;2.25;1.00;;;16.00;65.30;;;;;;5039587;28;20032;-63
2022/06/04 00:31:36;;;;;;;2.15;0.90;;;16.00;65.40;;;;;;5038248;28;20443;-63
2022/06/04 00:34:03;;;;;;;1.30;0.88;;;16.00;65.70;;;;;;5032620;28;20030;-63
2022/06/04 00:36:31;;;;;;;2.95;0.80;;;15.90;65.70;;;;;;5036541;28;20052;-63
2022/06/04 00:38:56;;;;;;;2.25;1.10;;;15.90;65.90;;;;;;5035997;28;20032;-65
2022/06/04 00:41:38;;;;;;;2.40;0.98;;;15.80;66.40;;;;;;5033091;28;20037;-63
2022/06/04 00:44:09;;;;;;;2.88;0.80;;;15.70;66.40;;;;;;5045171;28;20129;-63
2022/06/04 00:46:41;;;;;;;1.80;1.15;;;15.70;66.60;;;;;;5036163;28;20454;-63
2022/06/04 00:49:15;;;;;;;3.13;1.00;;;15.70;66.80;;;;;;5031348;28;20473;-63
2022/06/04 00:51:44;;;;;;;2.47;1.02;;;15.70;67.00;;;;;;5031070;28;20025;-62
2022/06/04 00:54:10;;;;;;;2.53;1.10;;;15.60;67.30;;;;;;5038181;28;20171;-63
2022/06/04 00:57:09;;;;;;;4.07;1.17;;;15.60;67.60;;;;;;5036039;28;20496;-63
2022/06/04 00:59:50;;;;;;;3.73;1.03;;;15.60;67.70;;;;;;5036121;28;20017;-63
2022/06/04 01:02:30;;;;;;;1.70;1.17;;;15.50;68.00;;;;;;5043985;28;20059;-62
2022/06/04 01:05:21;;;;;;;1.95;1.33;;;15.40;68.30;;;;;;5031145;28;20024;-63
2022/06/04 01:08:08;;;;;;;2.60;1.17;;;15.40;68.50;;;;;;5039423;28;20028;-63
2022/06/04 01:11:06;;;;;;;2.22;1.10;;;15.30;68.80;;;;;;5038354;28;20029;-63
2022/06/04 01:14:05;;;;;;;2.58;1.10;;;15.30;69.00;;;;;;5036390;28;20013;-63
2022/06/04 01:16:49;;;;;;;2.65;1.05;;;15.30;69.10;;;;;;5039347;28;20048;-63
2022/06/04 01:19:33;;;;;;;2.90;1.00;;;15.20;69.10;;;;;;5034904;28;20371;-63
2022/06/04 01:22:33;;;;;;;3.17;1.10;;;15.30;69.30;;;;;;5036563;28;20389;-63
2022/06/04 01:25:40;;;;;;;3.08;0.93;;;15.20;69.10;;;;;;5038085;28;20014;-63
2022/06/04 01:28:14;;;;;;;3.97;1.67;;;15.30;69.00;;;;;;5041494;28;20036;-63
2022/06/04 01:30:46;;;;;;;2.30;1.15;;;15.20;69.00;;;;;;5045011;28;20018;-63
2022/06/04 01:33:35;;;;;;;2.65;1.00;;;15.20;68.90;;;;;;5031575;28;20481;-63
2022/06/04 01:36:21;;;;;;;2.17;1.05;;;15.20;68.80;;;;;;5033178;28;20030;-63
2022/06/04 01:39:13;;;;;;;2.83;1.20;;;15.20;69.00;;;;;;5033797;28;20013;-63
2022/06/04 01:41:43;;;;;;;2.50;1.25;;;15.10;68.90;;;;;;5036554;28;20013;-63
2022/06/04 01:44:14;;;;;;;1.70;1.15;;;15.10;68.80;;;;;;5032407;28;20017;-63
2022/06/04 01:46:48;;;;;;;2.78;1.08;;;15.10;68.80;;;;;;5038597;28;20017;-63
2022/06/04 01:49:35;;;;;;;2.65;2.00;;;15.00;68.90;;;;;;5036908;28;20013;-63
2022/06/04 01:52:11;;;;;;;3.38;1.20;;;15.00;69.10;;;;;;5042764;28;20397;-62
2022/06/04 01:54:48;;;;;;;1.80;0.90;;;15.00;69.20;;;;;;5036708;28;20026;-65
2022/06/04 01:57:24;;;;;;;3.42;1.10;;;15.00;69.10;;;;;;5037482;28;20049;-63
2022/06/04 01:59:57;;;;;;;4.40;1.25;;;15.00;69.00;;;;;;5040467;28;20025;-63
2022/06/04 02:02:34;;;;;;;2.75;1.30;;;15.00;69.10;;;;;;5034882;28;20094;-63
2022/06/04 02:05:03;;;;;;;1.70;1.00;;;15.00;68.90;;;;;;5035042;28;20087;-63
2022/06/04 02:07:32;;;;;;;;;;;15.00;69.10;;;;;;5035793;28;20017;-62
2022/06/04 02:10:13;;;;;;;1.98;1.08;;;14.90;69.40;;;;;;5038935;28;20004;-62
2022/06/04 02:12:41;;;;;;;3.05;1.45;;;14.80;69.50;;;;;;5048493;28;20029;-62
2022/06/04 02:15:12;;;;;;;5.43;1.50;;;14.80;69.80;;;;;;5045404;28;20024;-62
2022/06/04 02:17:44;;;;;;;2.08;1.40;;;14.80;69.80;;;;;;5031890;28;20064;-63
2022/06/04 02:20:12;;;;;;;3.42;1.65;;;14.80;70.10;;;;;;5033372;28;20032;-63
2022/06/04 02:22:38;;;;;;;1.88;1.40;;;14.80;70.60;;;;;;5046594;28;20021;-63
2022/06/04 02:25:07;;;;;;;2.90;1.55;;;14.70;70.70;;;;;;5040520;28;20021;-63
2022/06/04 02:27:33;;;;;;;2.50;1.50;;;14.70;70.70;;;;;;5035818;28;20084;-62
2022/06/04 02:29:59;;;;;;;2.70;1.70;;;14.70;70.90;;;;;;5038655;28;20434;-63
2022/06/04 02:32:55;;;;;;;3.15;1.55;;;14.70;71.10;;;;;;5039658;28;20121;-63
2022/06/04 02:35:26;;;;;;;3.95;1.88;;;14.70;71.70;;;;;;5032953;28;20079;-62
2022/06/04 02:38:01;;;;;;;2.75;1.65;;;14.70;71.50;;;;;;5036780;28;20029;-62
2022/06/04 02:40:42;;;;;;;3.53;1.60;;;14.60;71.60;;;;;;5035644;28;20021;-63
2022/06/04 02:43:16;;;;;;;3.05;1.52;;;14.60;71.80;;;;;;5033959;28;20112;-63
2022/06/04 02:45:52;;;;;;;3.50;1.65;;;14.60;72.00;;;;;;5036696;28;20014;-63
2022/06/04 02:48:40;;;;;;;4.15;1.73;;;14.60;71.90;;;;;;5033030;28;20021;-63
2022/06/04 02:51:12;;;;;;;2.90;1.63;;;14.60;71.90;;;;;;5031137;28;20017;-62
2022/06/04 02:53:41;;;;;;;3.42;2.08;;;14.50;72.30;;;;;;5040087;28;20040;-63
2022/06/04 02:56:11;;;;;;;2.75;1.73;;;14.50;72.30;;;;;;5033675;28;20022;-62
2022/06/04 02:58:39;;;;;;;4.78;1.83;;;14.50;72.30;;;;;;5033929;28;20029;-62
2022/06/04 03:01:08;;;;;;;4.72;1.58;;;14.50;72.50;;;;;;5034214;28;20030;-63
2022/06/04 03:03:34;;;;;;;4.30;1.73;;;14.50;72.60;;;;;;5032861;28;20099;-62
2022/06/04 03:06:05;;;;;;;5.80;2.40;;;14.50;72.80;;;;;;5045051;28;20029;-62
2022/06/04 03:08:32;;;;;;;3.80;1.95;;;14.50;73.00;;;;;;5038025;28;20021;-63
2022/06/04 03:10:59;;;;;;;2.97;1.83;;;14.40;73.30;;;;;;5040164;28;20024;-63
2022/06/04 03:13:25;;;;;;;2.85;1.88;;;14.40;73.50;;;;;;5036819;28;20151;-62
2022/06/04 03:15:51;;;;;;;4.82;1.98;;;14.40;73.50;;;;;;5040629;28;20025;-63
2022/06/04 03:18:17;;;;;;;3.55;1.88;;;14.40;73.70;;;;;;5036338;28;20760;-63
2022/06/04 03:20:44;;;;;;;3.45;1.80;;;14.40;73.70;;;;;;5037481;28;20578;-63
2022/06/04 03:23:09;;;;;;;6.50;2.15;;;14.40;73.90;;;;;;5032373;28;20033;-63
2022/06/04 03:25:37;;;;;;;3.65;1.88;;;14.40;74.20;;;;;;5030609;28;20067;-63
2022/06/04 03:28:03;;;;;;;4.72;2.45;;;14.40;74.30;;;;;;5033780;28;20021;-63
2022/06/04 03:30:29;;;;;;;4.20;1.90;;;14.40;74.50;;;;;;5034609;28;20028;-63
2022/06/04 03:32:55;;;;;;;4.07;1.88;;;14.40;74.60;;;;;;5033142;28;20124;-63
2022/06/04 03:35:21;;;;;;;3.65;2.03;;;14.40;74.70;;;;;;5033664;28;20421;-63
2022/06/04 03:37:47;;;;;;;5.28;2.25;;;14.30;74.70;;;;;;5033222;28;20523;-63
2022/06/04 03:40:13;;;;;;;2.50;1.80;;;14.30;74.90;;;;;;5033361;28;20380;-63
2022/06/04 03:42:39;;;;;;;4.47;1.90;;;14.30;75.10;;;;;;5030710;28;20485;-63
2022/06/04 03:45:07;;;;;;;5.13;1.98;;;14.30;75.10;;;;;;5034116;28;20050;-63
2022/06/04 03:47:36;;;;;;;4.05;2.22;;;14.30;75.30;;;;;;5039225;28;20339;-63
2022/06/04 03:50:04;;;;;;;4.28;2.28;;;14.30;75.70;;;;;;5035182;28;20469;-63
2022/06/04 03:52:30;;;;;;;3.55;2.30;;;14.30;76.20;;;;;;5037231;28;20041;-63
2022/06/04 03:54:56;;;;;;;2.72;2.45;;;14.20;76.60;;;;;;5033716;28;20029;-63
2022/06/04 04:00:13;;;;;;;7.40;3.40;;;14.30;76.90;;;;;;5038809;28;20033;-63
2022/06/04 04:02:40;;;;;;;3.70;2.55;;;14.30;77.50;;;;;;5034988;28;20029;-63
2022/06/04 04:05:08;;;;;;;9.80;3.30;;;14.30;77.40;;;;;;5034703;28;20018;-63
2022/06/04 04:07:34;;;;;;;5.90;2.58;;;14.30;77.70;;;;;;5033563;28;20029;-63
2022/06/04 04:10:00;;;;;;;5.20;2.88;;;14.30;77.90;;;;;;5039085;28;20021;-63
2022/06/04 04:12:28;;;;;;;5.90;2.53;;;14.30;78.10;;;;;;5031524;28;20028;-63
2022/06/04 04:14:53;;;;;;;4.32;2.47;;;14.30;78.10;;;;;;5039690;28;20079;-63
2022/06/04 04:17:19;;;;;;;5.32;2.55;;;14.30;78.40;;;;;;5036024;28;20021;-63
2022/06/04 04:19:44;;;;;;;5.97;2.33;;;14.30;78.60;;;;;;5039243;28;20029;-63
2022/06/04 04:22:10;;;;;;;3.67;2.67;;;14.30;78.60;;;;;;5040891;28;20032;-63
2022/06/04 04:24:35;;;;;;;6.32;2.75;;;14.30;78.80;;;;;;5037797;28;20020;-63
2022/06/04 04:27:01;;;;;;;6.13;3.00;;;14.30;79.10;;;;;;5040699;28;20029;-63
2022/06/04 04:29:26;;;;;;;4.88;2.72;;;14.30;79.40;;;;;;5041871;28;20071;-63
2022/06/04 04:31:52;;;;;;;4.53;2.58;;;14.30;79.50;;;;;;5034739;28;20049;-63
2022/06/04 04:34:17;;;;;;;6.50;3.15;;;14.30;79.60;;;;;;5038689;28;20063;-63
2022/06/04 04:36:45;;;;;;;4.25;2.92;;;14.30;79.80;;;;;;5042625;28;20029;-63
2022/06/04 04:39:11;;;;;;;4.55;2.65;;;14.30;79.90;;;;;;5034968;28;20026;-63
2022/06/04 04:41:36;;;;;;;5.10;3.00;;;14.30;80.00;;;;;;5038350;28;20473;-63
2022/06/04 04:44:02;;;;;;;6.15;2.40;;;14.30;80.00;;;;;;5035818;28;20030;-63
2022/06/04 04:46:28;;;;;;;6.80;3.17;;;14.40;80.20;;;;;;5034455;28;20029;-63
2022/06/04 04:48:54;;;;;;;5.75;2.90;;;14.30;80.50;;;;;;5033867;28;20410;-63
2022/06/04 04:51:23;;;;;;;8.38;3.33;;;14.40;80.70;;;;;;5035472;28;20051;-63
2022/06/04 04:53:49;;;;;;;5.93;2.90;;;14.40;80.80;;;;;;5039097;28;20073;-63
2022/06/04 04:56:21;;;;;;;7.35;3.13;;;14.40;80.90;;;;;;5031428;28;20087;-63
2022/06/04 04:58:47;;;;;;;6.78;3.10;;;14.40;81.10;;;;;;5033645;28;20038;-63
2022/06/04 05:01:33;;;;;;;5.35;3.10;;;14.40;81.20;;;;;;5037668;28;20037;-62
2022/06/04 05:03:59;;;;;;;6.30;3.47;;;14.40;81.20;;;;;;5037859;28;20029;-62
2022/06/04 05:06:25;;;;;;;4.75;2.65;;;14.40;81.50;;;;;;5037593;28;20021;-62
2022/06/04 05:08:52;;;;;;;8.48;2.97;;;14.50;81.60;;;;;;5033159;28;20064;-62
2022/06/04 05:11:22;;;;;;;4.53;3.03;;;14.50;81.50;;;;;;5036578;28;20034;-62
2022/06/04 05:13:51;;;;;;;6.03;3.45;;;14.50;81.60;;;;;;5045739;28;20040;-62
2022/06/04 05:16:18;;;;;;;7.40;4.30;;;14.50;81.60;;;;;;5053158;28;20044;-63
2022/06/04 05:18:44;;;;;;;7.25;4.35;;;14.50;81.80;;;;;;5048474;28;20051;-62
2022/06/04 05:21:22;;;;;;;6.78;4.15;;;14.50;81.80;;;;;;5023662;28;20036;-62
2022/06/04 05:23:48;;;;;;;10.40;3.88;;;14.50;81.90;;;;;;5034791;28;20022;-62
2022/06/04 05:26:14;;;;;;;5.25;4.40;;;14.50;82.30;;;;;;5035275;28;20021;-62
2022/06/04 05:28:40;;;;;;;9.80;4.43;;;14.50;82.50;;;;;;5034816;28;20122;-63
2022/06/04 05:31:06;;;;;;;9.00;4.18;;;14.50;82.50;;;;;;5036925;28;20485;-62
2022/06/04 05:33:32;;;;;;;7.65;4.90;;;14.50;82.70;;;;;;5044521;28;20477;-63
2022/06/04 05:35:57;;;;;;;10.40;4.55;;;14.50;82.70;;;;;;5036573;28;20049;-63
2022/06/04 05:38:24;;;;;;;8.23;4.60;;;14.50;82.90;;;;;;5034676;28;20025;-62
2022/06/04 05:40:58;;;;;;;6.22;4.50;;;14.50;82.80;;;;;;5034344;28;20024;-62
2022/06/04 05:43:24;;;;;;;7.68;4.55;;;14.50;82.90;;;;;;5046197;28;20086;-63
2022/06/04 05:45:56;;;;;;;8.80;4.40;;;14.50;82.90;;;;;;5039002;28;20462;-62
2022/06/04 05:48:22;;;;;;;8.70;4.07;;;14.50;82.80;;;;;;5042583;28;20524;-63
2022/06/04 05:50:51;;;;;;;7.32;5.50;;;14.50;82.80;;;;;;5046890;28;20097;-62
2022/06/04 05:53:17;;;;;;;;;;;14.60;82.90;;;;;;5031292;28;20045;-63
2022/06/04 05:55:43;;;;;;;7.90;4.90;;;14.60;83.00;;;;;;5043447;28;19909;-63
2022/06/04 05:58:08;;;;;;;7.38;4.30;;;14.60;83.00;;;;;;5048820;28;20029;-62
2022/06/04 06:00:34;;;;;;;7.20;4.55;;;14.60;82.80;;;;;;5042860;28;20079;-63
2022/06/04 06:03:00;;;;;;;7.32;4.50;;;14.60;82.80;;;;;;5045785;28;20029;-63
2022/06/04 06:05:25;;;;;;;7.20;4.85;;;14.70;82.90;;;;;;5043352;28;20495;-63
2022/06/04 06:07:51;;;;;;;10.88;5.28;;;14.70;82.90;;;;;;5034062;28;20030;-63
2022/06/04 06:10:16;;;;;;;9.10;4.63;;;14.70;82.90;;;;;;5036030;28;20032;-63
2022/06/04 06:12:42;;;;;;;7.07;3.95;;;14.80;83.00;;;;;;5033666;28;20477;-63
2022/06/04 06:15:08;;;;;;;6.03;4.55;;;14.80;82.90;;;;;;5043026;28;20033;-63
2022/06/04 06:17:34;;;;;;;5.47;4.05;;;14.80;82.70;;;;;;5042863;28;20036;-63
2022/06/04 06:20:00;;;;;;;8.88;4.63;;;14.90;82.70;;;;;;5045470;28;20028;-63
2022/06/04 06:22:25;;;;;;;9.63;4.90;;;14.90;82.60;;;;;;5041006;28;20087;-63
2022/06/04 06:24:51;;;;;;;5.90;3.97;;;15.00;82.50;;;;;;5042015;28;20100;-63
2022/06/04 06:27:16;;;;;;;5.72;3.95;;;15.00;82.40;;;;;;5046523;28;20055;-63
2022/06/04 06:29:42;;;;;;;5.70;4.38;;;15.00;82.30;;;;;;5049796;28;20025;-63
2022/06/04 06:32:08;;;;;;;6.75;4.50;;;15.10;82.30;;;;;;5049898;28;20091;-63
2022/06/04 06:34:33;;;;;;;5.78;3.53;;;15.10;82.40;;;;;;5042029;28;20040;-63
2022/06/04 06:36:59;;;;;;;7.57;4.25;;;15.20;82.30;;;;;;5049480;28;20033;-63
2022/06/04 06:39:25;;;;;;;7.40;3.97;;;15.20;82.20;;;;;;5037206;28;20081;-63
2022/06/04 06:41:50;;;;;;;6.55;4.07;;;15.20;82.10;;;;;;5044579;28;20037;-63
2022/06/04 06:44:16;;;;;;;7.95;4.88;;;15.30;82.00;;;;;;5032559;28;20018;-63
2022/06/04 06:46:45;;;;;;;7.10;4.47;;;15.30;82.00;;;;;;5032975;28;20028;-63
2022/06/04 06:49:20;;;;;;;5.43;4.13;;;15.30;81.80;;;;;;5043977;28;20059;-63
2022/06/04 06:51:51;;;;;;;8.18;4.28;;;15.30;81.60;;;;;;5048638;28;20029;-63
2022/06/04 06:54:19;;;;;;;8.90;4.88;;;15.40;81.70;;;;;;5036306;28;20029;-63
2022/06/04 06:56:46;;;;;;;7.50;4.50;;;15.40;81.60;;;;;;5036214;28;20469;-63
2022/06/04 06:59:12;;;;;;;7.80;4.60;;;15.40;81.40;;;;;;5035712;28;20032;-63
2022/06/04 07:01:38;;;;;;;8.93;5.10;;;15.40;81.50;;;;;;5035783;28;20033;-63
2022/06/04 07:04:04;;;;;;;9.15;4.82;;;15.50;82.00;;;;;;5039994;28;20021;-63
2022/06/04 07:06:32;;;;;;;6.07;4.05;;;15.50;81.30;;;;;;5042979;28;20396;-63
2022/06/04 07:08:58;;;;;;;6.78;3.78;;;15.50;81.20;;;;;;5038652;28;20119;-63
2022/06/04 07:11:24;;;;;;;5.35;3.67;;;15.60;81.10;;;;;;5043722;28;20045;-64
2022/06/04 07:13:50;;;;;;;7.90;4.72;;;15.70;81.10;;;;;;5043061;28;20473;-63
2022/06/04 07:16:16;;;;;;;9.75;4.97;;;15.70;80.80;;;;;;5046808;28;20039;-63
2022/06/04 07:18:41;;;;;;;6.95;4.53;;;15.70;80.80;;;;;;5044584;28;20098;-63
2022/06/04 07:21:07;;;;;;;6.85;3.70;;;15.70;80.90;;;;;;5045800;28;20021;-63
2022/06/04 07:23:35;;;;;;;7.00;4.35;;;15.80;80.80;;;;;;5049310;28;20044;-63
2022/06/04 07:26:03;;;;;;;9.43;4.65;;;15.90;80.70;;;;;;5047801;28;20021;-65
2022/06/04 07:28:28;;;;;;;7.72;4.78;;;15.90;80.50;;;;;;5045601;28;20079;-63
2022/06/04 07:30:54;;;;;;;7.75;4.80;;;16.00;80.30;;;;;;5037253;28;20030;-63
2022/06/04 07:33:20;;;;;;;7.30;4.28;;;16.10;80.20;;;;;;5036892;28;20021;-63
2022/06/04 07:35:48;;;;;;;7.53;3.83;;;16.10;80.00;;;;;;5046749;28;20492;-63
2022/06/04 07:38:13;;;;;;;8.00;4.18;;;16.20;79.80;;;;;;5045934;28;20029;-63
2022/06/04 07:40:39;;;;;;;8.88;4.35;;;16.30;79.40;;;;;;5049446;28;20075;-63
2022/06/04 07:43:04;;;;;;;5.53;3.95;;;16.30;79.20;;;;;;5027248;28;20596;-63
2022/06/04 07:45:30;;;;;;;6.25;4.15;;;16.30;78.90;;;;;;5048893;28;20021;-63
2022/06/04 07:47:55;;;;;;;6.43;4.13;;;16.40;78.50;;;;;;5049784;28;20116;-63
2022/06/04 07:50:21;;;;;;;5.90;4.03;;;16.40;78.70;;;;;;5049591;28;20017;-64
2022/06/04 07:52:47;;;;;;;4.97;3.20;;;16.50;78.90;;;;;;5045215;28;20581;-64
2022/06/04 07:55:12;;;;;;;5.88;4.25;;;16.50;78.70;;;;;;5048466;28;20017;-63
2022/06/04 07:57:38;;;;;;;5.03;3.50;;;16.60;78.80;;;;;;5043606;28;20033;-64
2022/06/04 08:00:06;;;;;;;6.28;3.97;;;16.70;78.70;;;;;;5047635;28;20484;-64
2022/06/04 08:02:32;;;;;;;6.55;4.20;;;16.70;78.60;;;;;;5048155;28;20037;-63
2022/06/04 08:04:57;;;;;;;8.10;4.20;;;16.80;78.10;;;;;;5048395;28;20427;-63
2022/06/04 08:07:24;;;;;;;7.88;3.65;;;16.80;77.60;;;;;;5042660;28;20022;-64
2022/06/04 08:09:50;;;;;;;7.70;4.97;;;16.90;77.50;;;;;;5046286;28;20396;-63
2022/06/04 08:12:16;;;;;;;8.07;4.63;;;16.90;77.50;;;;;;5043648;28;20028;-63
2022/06/04 08:14:42;;;;;;;5.30;3.95;;;17.00;77.30;;;;;;5048120;28;20033;-63
2022/06/04 08:17:09;;;;;;;6.78;4.15;;;17.00;77.00;;;;;;5044693;28;20018;-63
2022/06/04 08:19:37;;;;;;;6.40;3.92;;;17.00;76.80;;;;;;5032326;28;20389;-63
2022/06/04 08:22:03;;;;;;;8.02;4.10;;;17.00;76.80;;;;;;5046212;28;20021;-63
2022/06/04 08:24:29;;;;;;;7.05;4.10;;;17.00;76.70;;;;;;5050348;28;20074;-63
2022/06/04 08:26:59;;;;;;;5.82;4.43;;;17.10;76.30;;;;;;5044661;28;20013;-63
2022/06/04 08:29:30;;;;;;;7.55;4.60;;;17.10;76.60;;;;;;5046730;28;20022;-63
2022/06/04 08:31:56;;;;;;;7.00;4.55;;;17.10;76.60;;;;;;5039961;28;20024;-64
2022/06/04 08:34:22;;;;;;;5.82;4.18;;;17.10;76.40;;;;;;5039625;28;20028;-63
2022/06/04 08:36:48;;;;;;;6.45;4.50;;;17.20;76.30;;;;;;5040394;28;20500;-63
2022/06/04 08:39:14;;;;;;;6.40;4.22;;;17.30;76.30;;;;;;5043675;28;20081;-63
2022/06/04 08:41:48;;;;;;;6.75;4.38;;;17.30;76.00;;;;;;5050890;28;20040;-63
2022/06/04 08:44:34;;;;;;;7.60;4.18;;;17.40;76.30;;;;;;5048164;28;20025;-63
2022/06/04 08:47:12;;;;;;;5.80;4.30;;;17.60;76.10;;;;;;5051672;28;20028;-63
2022/06/04 08:49:54;;;;;;;9.77;5.15;;;17.70;75.80;;;;;;5047661;28;20022;-63
2022/06/04 08:52:27;;;;;;;6.15;4.78;;;17.80;75.40;;;;;;5050965;28;20064;-64
2022/06/04 08:58:05;;;;;;;10.15;5.05;;;18.10;74.90;;;;;;5057162;28;20428;-63
2022/06/04 09:00:38;;;;;;;10.07;4.63;;;18.30;73.80;;;;;;5051241;28;20020;-63
2022/06/04 09:03:18;;;;;;;7.75;4.50;;;18.40;73.90;;;;;;5040356;28;20029;-63
2022/06/04 09:06:12;;;;;;;8.05;4.13;;;18.60;73.40;;;;;;5059847;28;20056;-63
2022/06/04 09:08:46;;;;;;;6.43;4.60;;;18.80;72.40;;;;;;5050432;28;20092;-63
2022/06/04 09:11:25;;;;;;;7.18;4.85;;;18.90;72.00;;;;;;5049434;28;20032;-63
2022/06/04 09:14:15;;;;;;;5.93;3.95;;;19.00;71.50;;;;;;5048724;28;20013;-63
2022/06/04 09:16:48;;;;;;;6.53;4.28;;;19.20;71.70;;;;;;5053195;28;20159;-63
2022/06/04 09:19:19;;;;;;;7.78;3.80;;;19.30;71.50;;;;;;5049843;28;20017;-63
2022/06/04 09:21:46;;;;;;;6.47;3.67;;;19.40;71.10;;;;;;5052101;28;20033;-63
2022/06/04 09:24:12;;;;;;;8.75;3.67;;;19.60;70.90;;;;;;5052132;28;20025;-63
2022/06/04 09:27:07;;;;;;;5.85;4.00;;;19.80;70.20;;;;;;5052610;28;20516;-63
2022/06/04 09:29:42;;;;;;;5.88;3.58;;;20.00;69.50;;;;;;5048232;28;20381;-63
2022/06/04 09:32:20;;;;;;;5.68;3.72;;;20.10;69.00;;;;;;5046127;28;20017;-63
2022/06/04 09:34:47;;;;;;;5.38;3.55;;;20.20;68.60;;;;;;5054385;28;20167;-63
2022/06/04 09:37:14;;;;;;;5.15;3.75;;;20.20;68.00;;;;;;5044819;28;20025;-63
2022/06/04 09:39:42;;;;;;;6.40;3.92;;;20.30;68.00;;;;;;5058492;28;20116;-63
2022/06/04 09:42:11;;;;;;;7.05;4.95;;;20.40;67.70;;;;;;5063672;28;20019;-63
2022/06/04 09:44:47;;;;;;;5.80;5.00;;;20.50;67.30;;;;;;5042014;28;20140;-63
2022/06/04 09:47:42;;;;;;;7.10;4.40;;;20.50;67.00;;;;;;5044711;28;20025;-63
2022/06/04 09:50:33;;;;;;;5.53;3.92;;;20.60;66.60;;;;;;5047728;28;20468;-63
2022/06/04 09:53:23;;;;;;;6.68;4.43;;;20.60;66.50;;;;;;5047636;28;20057;-63
2022/06/04 09:55:52;;;;;;;7.05;4.22;;;20.70;66.10;;;;;;5047623;28;20025;-63
2022/06/04 09:58:30;;;;;;;6.68;3.83;;;20.70;66.20;;;;;;5053058;28;20024;-63
2022/06/04 10:01:06;;;;;;;7.72;5.07;;;20.80;65.90;;;;;;5049030;28;20033;-63
2022/06/04 10:03:39;;;;;;;8.13;4.35;;;20.90;65.80;;;;;;5051873;28;20104;-63
2022/06/04 10:06:14;;;;;;;8.32;3.90;;;21.00;65.80;;;;;;5054362;28;20059;-64
2022/06/04 10:11:57;;;;;;;5.93;4.00;;;21.30;65.10;;;;;;5045458;28;20040;-64
2022/06/04 10:14:37;;;;;;;6.68;3.80;;;21.50;64.80;;;;;;5050144;28;20393;-64
2022/06/04 10:17:06;;;;;;;4.78;3.70;;;21.70;64.60;;;;;;5046935;28;20493;-64
2022/06/04 10:19:33;;;;;;;4.72;3.15;;;21.90;64.20;;;;;;5046132;28;20025;-63
2022/06/04 10:22:17;;;;;;;3.72;2.97;;;22.10;63.80;;;;;;5043096;28;20052;-64
2022/06/04 10:24:53;;;;;;;6.97;3.38;;;22.40;63.40;;;;;;5048993;28;20551;-64
2022/06/04 10:27:34;;;;;;;8.68;3.70;;;22.70;63.10;;;;;;5049766;28;20044;-64
2022/06/04 10:30:09;;;;;;;6.70;3.63;;;22.90;61.70;;;;;;5049441;28;20029;-64
2022/06/04 10:32:46;;;;;;;5.32;3.45;;;23.00;60.70;;;;;;5043156;28;20063;-64
2022/06/04 10:35:47;;;;;;;5.75;3.90;;;23.10;60.40;;;;;;5048674;28;20057;-64
2022/06/04 10:38:23;;;;;;;7.03;3.60;;;23.20;59.70;;;;;;5044445;28;20056;-64
2022/06/04 10:41:14;;;;;;;5.63;3.60;;;23.20;59.10;;;;;;5049022;28;20032;-64
2022/06/04 10:44:17;;;;;;;6.30;3.53;;;23.30;58.90;;;;;;5044268;28;20074;-64
2022/06/04 10:47:08;;;;;;;4.78;3.53;;;23.40;58.20;;;;;;5050050;28;20045;-64
2022/06/04 10:49:52;;;;;;;6.88;4.05;;;23.50;57.90;;;;;;5065002;28;20025;-65
2022/06/04 10:52:31;;;;;;;7.45;3.78;;;23.70;57.50;;;;;;5049205;28;20032;-64
2022/06/04 10:55:06;;;;;;;4.68;3.55;;;23.80;56.90;;;;;;5045270;28;20020;-63
2022/06/04 10:57:43;;;;;;;6.70;2.88;;;24.00;57.00;;;;;;5047936;28;20120;-64
2022/06/04 11:00:14;;;;;;;4.35;3.28;;;24.20;56.60;;;;;;5051336;28;20081;-64
2022/06/04 11:03:03;;;;;;;4.43;3.25;;;24.40;56.00;;;;;;5049877;28;20108;-64
2022/06/04 11:05:40;;;;;;;4.43;2.70;;;24.60;55.70;;;;;;5046722;28;20104;-64
2022/06/04 11:08:18;;;;;;;4.78;3.20;;;24.70;55.70;;;;;;5050366;28;20055;-64
2022/06/04 11:10:49;;;;;;;4.65;2.95;;;24.80;54.80;;;;;;5047756;28;20013;-64
2022/06/04 11:13:26;;;;;;;3.92;2.92;;;24.90;54.80;;;;;;5045808;28;20025;-64
2022/06/04 11:16:00;;;;;;;6.25;3.10;;;25.10;54.70;;;;;;5046937;28;20029;-64
2022/06/04 11:18:34;;;;;;;3.90;2.67;;;25.10;54.00;;;;;;5046149;28;20051;-64
2022/06/04 11:21:17;;;;;;;3.60;2.55;;;25.20;53.90;;;;;;5031951;28;20033;-64
2022/06/04 11:23:54;;;;;;;5.03;3.15;;;25.40;53.90;;;;;;5030437;28;20037;-64
2022/06/04 11:26:20;;;;;;;5.93;3.60;;;25.50;53.60;;;;;;5035514;28;20025;-64
2022/06/04 11:28:46;;;;;;;4.88;2.83;;;25.50;53.00;;;;;;5049608;28;20463;-64
2022/06/04 11:31:44;;;;;;;6.60;3.35;;;25.60;53.20;;;;;;5036720;28;20104;-64
2022/06/04 11:34:30;;;;;;;4.88;3.10;;;25.70;52.30;;;;;;5028094;28;20061;-64
2022/06/04 11:37:10;;;;;;;3.78;3.13;;;25.70;52.00;;;;;;5042965;28;20017;-64
2022/06/04 11:39:53;;;;;;;3.35;2.90;;;25.70;52.30;;;;;;5036591;28;20430;-64
2022/06/04 11:42:48;;;;;;;4.07;3.15;;;25.70;52.50;;;;;;5041494;28;20036;-65
2022/06/04 11:45:35;;;;;;;3.05;2.35;;;25.80;52.80;;;;;;5048655;28;20411;-64
2022/06/04 11:48:10;;;;;;;5.97;3.20;;;25.80;52.20;;;;;;5059337;28;20025;-64
2022/06/04 11:51:03;;;;;;;3.92;3.00;;;25.90;52.40;;;;;;5049134;28;20048;-64
2022/06/04 11:53:57;;;;;;;3.65;2.90;;;26.00;52.00;;;;;;5051256;28;20045;-64
2022/06/04 11:56:32;;;;;;;2.90;2.60;;;26.10;51.70;;;;;;5048974;28;20036;-64
2022/06/04 11:59:42;;;;;;;7.20;3.03;;;26.30;51.50;;;;;;5046915;28;20043;-64
2022/06/04 12:02:13;;;;;;;4.80;3.13;;;26.40;51.30;;;;;;5031979;28;20026;-64
2022/06/04 12:04:46;;;;;;;4.93;3.25;;;26.40;51.10;;;;;;5031812;28;20021;-64
2022/06/04 12:07:20;;;;;;;5.93;3.08;;;26.40;51.00;;;;;;5046507;28;20111;-64
2022/06/04 12:09:53;;;;;;;3.58;2.60;;;26.40;51.00;;;;;;5044949;28;20063;-64
2022/06/04 12:12:31;;;;;;;3.83;2.88;;;26.60;51.40;;;;;;5034216;28;20474;-64
2022/06/04 12:15:18;;;;;;;5.97;3.03;;;26.70;51.20;;;;;;5034768;28;20596;-64
2022/06/04 12:17:48;;;;;;;4.18;2.83;;;26.80;51.20;;;;;;5035849;28;20021;-64
2022/06/04 12:26:34;;;;;;;4.28;3.28;;;27.30;50.00;;;;;;5037106;28;20043;-64
2022/06/04 12:29:21;;;;;;;5.82;3.05;;;27.30;49.30;;;;;;5045299;28;20017;-64
2022/06/04 12:32:06;;;;;;;3.35;2.03;;;27.30;49.40;;;;;;5051367;28;20020;-64
2022/06/04 12:34:38;;;;;;;3.58;2.10;;;27.40;49.50;;;;;;5039621;28;20025;-64
2022/06/04 12:37:19;;;;;;;3.95;2.33;;;27.50;49.50;;;;;;5040544;28;20087;-64
2022/06/04 12:39:44;;;;;;;3.55;1.90;;;27.50;48.90;;;;;;5047045;28;20100;-64
2022/06/04 12:42:19;;;;;;;4.57;3.30;;;27.60;49.30;;;;;;5033803;28;20113;-64
2022/06/04 12:45:34;;;;;;;4.65;2.30;;;27.70;48.80;;;;;;5036206;28;20018;-64
2022/06/04 12:48:00;;;;;;;4.47;3.05;;;27.80;49.00;;;;;;5011467;28;20118;-64
2022/06/04 12:50:33;;;;;;;4.18;1.90;;;27.80;48.20;;;;;;5044197;28;20049;-65
2022/06/04 12:53:15;;;;;;;3.30;1.80;;;27.90;48.40;;;;;;5034563;28;20033;-65
2022/06/04 12:55:52;;;;;;;5.25;2.88;;;27.90;48.10;;;;;;5033261;28;20022;-64
2022/06/04 12:58:49;;;;;;;3.28;2.47;;;27.90;47.90;;;;;;5034966;28;20026;-64
2022/06/04 13:01:20;;;;;;;3.90;1.95;;;27.80;47.70;;;;;;5033829;28;20048;-65
2022/06/04 13:04:02;;;;;;;3.45;2.53;;;27.80;48.00;;;;;;5047736;28;20173;-65
2022/06/04 13:06:44;;;;;;;5.88;3.05;;;28.00;48.10;;;;;;5034944;28;20021;-64
2022/06/04 13:09:25;;;;;;;5.05;3.08;;;28.20;47.90;;;;;;5063596;28;20032;-65
2022/06/04 13:12:03;;;;;;;3.67;1.83;;;28.20;47.90;;;;;;5033115;28;20032;-64
2022/06/04 13:14:56;;;;;;;3.42;1.85;;;28.40;47.90;;;;;;5034931;28;20049;-64
2022/06/04 13:17:37;;;;;;;4.35;2.50;;;28.60;47.60;;;;;;5037448;28;20025;-64
2022/06/04 13:20:36;;;;;;;6.28;2.88;;;28.50;46.90;;;;;;5039989;28;20039;-64
2022/06/04 13:23:29;;;;;;;2.72;1.77;;;28.50;46.90;;;;;;5050395;28;20116;-64
2022/06/04 13:26:26;;;;;;;3.05;1.88;;;28.60;47.50;;;;;;5044038;28;20020;-64
2022/06/04 13:28:52;;;;;;;4.28;1.98;;;28.70;47.00;;;;;;5035952;28;20021;-64
2022/06/04 13:31:19;;;;;;;4.60;2.20;;;28.90;47.20;;;;;;5048880;28;20021;-65
2022/06/04 13:33:45;;;;;;;4.15;2.08;;;29.00;46.80;;;;;;5043320;28;20032;-65
2022/06/04 13:36:13;;;;;;;3.67;2.13;;;29.20;46.90;;;;;;5048252;28;20017;-65
2022/06/04 13:38:41;;;;;;;3.65;2.60;;;29.20;46.70;;;;;;5044574;28;20073;-65